Kent City, Michigan
Current Conditions -  °F | °C
As of 9:34 AM on Thursday 30 Oct 2014 (Local Time) from KFFX Reporting Station
Overcast Overcast  
Wind Chill: 43°   Ceiling: 3400
Heat Index: 43°   Visibility: 10mi
Dew Point: 39°   Wind: 0mph
Humidity: 86%   Direction: NA
Pressure: 30.1"   Gusts: NA
Location:  43.22°N, 85.75°W
Report Text: KFFX 301334Z AUTO 00000KT 10SM BKN034 OVC044 06/04 A3010 RMK AO2 T00590038
Loading
Personal Weather Stations






























Interactive Weather Map
Tropical Storm Tracking
New forecast layout! Learn more

10-Day Weather Forecast

Advertisements
Track Severe Weather on mobile